createdAt,value
2023-05-19T00:01:33.258Z,54.15
2023-05-19T00:04:05.571Z,54.03
2023-05-19T00:06:37.261Z,54.26
2023-05-19T00:09:10.072Z,54.00
2023-05-19T00:11:44.396Z,53.98
2023-05-19T00:14:15.906Z,54.10
2023-05-19T00:16:47.774Z,54.32
2023-05-19T00:19:19.090Z,54.41
2023-05-19T00:21:49.582Z,54.58
2023-05-19T00:24:20.150Z,55.08
2023-05-19T00:26:53.378Z,55.26
2023-05-19T00:29:23.830Z,55.35
2023-05-19T00:31:54.404Z,55.64
2023-05-19T00:34:24.948Z,55.67
2023-05-19T00:36:55.519Z,55.57
2023-05-19T00:39:26.130Z,55.87
2023-05-19T00:41:59.239Z,55.86
2023-05-19T00:44:30.049Z,56.51
2023-05-19T00:47:01.247Z,56.07
2023-05-19T00:49:31.865Z,56.63
2023-05-19T00:52:04.650Z,56.88
2023-05-19T00:54:36.747Z,56.90
2023-05-19T00:57:10.020Z,57.04
2023-05-19T00:59:40.475Z,57.38
2023-05-19T01:02:11.079Z,57.59
2023-05-19T01:04:44.035Z,57.76
2023-05-19T01:07:15.542Z,58.15
2023-05-19T01:09:46.195Z,58.37
2023-05-19T01:12:19.461Z,58.33
2023-05-19T01:14:50.144Z,58.34
2023-05-19T01:17:29.973Z,58.44
2023-05-19T01:20:08.397Z,58.49
2023-05-19T01:23:24.127Z,58.83
2023-05-19T01:26:40.259Z,58.98
2023-05-19T01:29:40.585Z,59.57
2023-05-19T01:32:15.057Z,60.15
2023-05-19T01:34:47.810Z,60.27
2023-05-19T01:37:19.463Z,60.57
2023-05-19T01:39:50.902Z,60.39
2023-05-19T01:42:22.554Z,60.74
2023-05-19T01:44:53.778Z,60.88
2023-05-19T01:47:27.866Z,61.10
2023-05-19T01:49:58.456Z,61.28
2023-05-19T01:52:30.350Z,61.30
2023-05-19T01:55:00.993Z,61.43
2023-05-19T01:57:43.432Z,61.86
2023-05-19T02:00:21.967Z,62.29
2023-05-19T02:03:07.523Z,62.46
2023-05-19T02:05:51.318Z,62.61
2023-05-19T02:08:28.740Z,62.50
2023-05-19T02:11:05.509Z,62.78
2023-05-19T02:13:42.871Z,62.80
2023-05-19T02:16:16.743Z,62.72
2023-05-19T02:18:50.495Z,62.80
2023-05-19T02:21:20.951Z,63.10
2023-05-19T02:23:53.466Z,63.10
2023-05-19T02:26:41.669Z,63.47
2023-05-19T02:29:12.157Z,63.72
2023-05-19T02:31:42.651Z,63.70
2023-05-19T02:34:16.121Z,63.97
2023-05-19T02:36:54.169Z,63.87
2023-05-19T02:39:24.736Z,64.37
2023-05-19T02:41:55.204Z,64.32
2023-05-19T02:44:27.009Z,64.04
2023-05-19T02:46:57.538Z,64.25
2023-05-19T02:49:36.035Z,64.49
2023-05-19T02:52:07.263Z,64.51
2023-05-19T02:54:51.975Z,64.79
2023-05-19T02:57:22.574Z,64.67
2023-05-19T02:59:52.968Z,64.56
2023-05-19T03:02:26.398Z,65.07
2023-05-19T03:05:01.790Z,65.17
2023-05-19T03:07:34.055Z,65.20
2023-05-19T03:10:06.807Z,65.36
2023-05-19T03:12:43.016Z,65.19
2023-05-19T03:15:16.656Z,65.62
2023-05-19T03:17:47.427Z,65.85
2023-05-19T03:20:21.023Z,65.97
2023-05-19T03:22:51.696Z,66.02
2023-05-19T03:25:22.844Z,66.08
2023-05-19T03:27:53.359Z,66.13
2023-05-19T03:30:23.745Z,66.49
2023-05-19T03:33:07.735Z,66.83
2023-05-19T03:35:41.084Z,67.01
2023-05-19T03:38:12.228Z,67.34
2023-05-19T03:40:45.260Z,67.70
2023-05-19T03:43:16.508Z,67.56
2023-05-19T03:45:58.375Z,67.67
2023-05-19T03:48:47.549Z,67.95
2023-05-19T03:51:39.683Z,67.93
2023-05-19T03:54:22.756Z,67.90
2023-05-19T03:56:54.809Z,68.37
2023-05-19T03:59:26.332Z,68.52
2023-05-19T04:01:58.073Z,68.55
2023-05-19T04:04:30.831Z,68.95
2023-05-19T04:07:03.830Z,69.19
2023-05-19T04:09:35.646Z,69.47
2023-05-19T04:12:06.171Z,69.65
2023-05-19T04:14:36.645Z,69.76
2023-05-19T04:17:07.833Z,69.96
2023-05-19T04:19:38.300Z,70.52
2023-05-19T04:22:11.480Z,70.54
2023-05-19T04:24:41.838Z,70.13
2023-05-19T04:27:13.945Z,69.72
2023-05-19T04:29:44.306Z,69.64
2023-05-19T04:32:18.002Z,69.57
2023-05-19T04:34:48.834Z,70.24
2023-05-19T04:37:28.436Z,69.86
2023-05-19T04:39:59.123Z,70.21
2023-05-19T04:42:33.131Z,70.41
2023-05-19T04:45:05.560Z,70.53
2023-05-19T04:47:38.987Z,71.18
2023-05-19T04:50:11.558Z,71.27
2023-05-19T04:52:45.709Z,70.96
2023-05-19T04:55:17.609Z,71.10
2023-05-19T04:57:49.371Z,71.05
2023-05-19T05:00:21.455Z,71.08
2023-05-19T05:03:08.113Z,70.94
2023-05-19T05:05:38.759Z,70.80
2023-05-19T05:08:15.584Z,70.65
2023-05-19T05:10:46.982Z,70.41
2023-05-19T05:13:18.197Z,70.19
2023-05-19T05:15:49.867Z,70.21
2023-05-19T05:18:21.268Z,70.10
2023-05-19T05:20:52.765Z,70.08
2023-05-19T05:23:27.394Z,70.23
2023-05-19T05:25:58.992Z,70.50
2023-05-19T05:28:31.237Z,70.74
2023-05-19T05:31:01.802Z,70.31
2023-05-19T05:33:33.402Z,69.98
2023-05-19T05:36:04.750Z,70.00
2023-05-19T05:38:38.045Z,70.07
2023-05-19T05:41:08.986Z,70.38
2023-05-19T05:43:41.105Z,70.06
2023-05-19T05:46:12.024Z,69.78
2023-05-19T05:48:44.449Z,70.09
2023-05-19T05:51:16.268Z,70.02
2023-05-19T05:53:55.848Z,70.56
2023-05-19T05:56:37.215Z,69.89
2023-05-19T05:59:09.620Z,69.73
2023-05-19T06:01:41.767Z,70.21
2023-05-19T06:04:13.307Z,69.64
2023-05-19T06:06:43.749Z,69.54
2023-05-19T06:09:19.395Z,70.39
2023-05-19T06:11:50.011Z,71.04
2023-05-19T06:14:20.592Z,69.83
2023-05-19T06:17:11.414Z,69.06
2023-05-19T06:19:41.928Z,69.18
2023-05-19T06:22:12.767Z,69.12
2023-05-19T06:24:45.799Z,68.79
2023-05-19T06:27:17.639Z,69.58
2023-05-19T06:29:49.585Z,69.50
2023-05-19T06:32:20.282Z,69.42
2023-05-19T06:34:54.376Z,69.75
2023-05-19T06:37:25.845Z,70.06
2023-05-19T06:39:59.028Z,69.12
2023-05-19T06:42:30.328Z,69.39
2023-05-19T06:45:11.819Z,69.00
2023-05-19T06:47:44.698Z,70.02
2023-05-19T06:50:15.411Z,69.49
2023-05-19T06:52:47.232Z,69.82
2023-05-19T06:55:20.558Z,69.93
2023-05-19T06:57:53.434Z,68.79
2023-05-19T07:00:24.391Z,68.57
2023-05-19T07:02:56.754Z,68.11
2023-05-19T07:05:27.971Z,68.21
2023-05-19T07:08:01.868Z,68.82
2023-05-19T07:10:35.795Z,68.97
2023-05-19T07:13:10.693Z,69.03
2023-05-19T07:15:41.106Z,67.44
2023-05-19T07:18:11.770Z,66.63
2023-05-19T07:20:42.291Z,66.61
2023-05-19T07:23:13.140Z,67.34
2023-05-19T07:25:46.257Z,65.53
2023-05-19T07:28:16.760Z,66.14
2023-05-19T07:30:47.496Z,65.87
2023-05-19T07:33:20.340Z,66.41
2023-05-19T07:35:51.801Z,65.42
2023-05-19T07:38:22.452Z,64.88
2023-05-19T07:40:55.594Z,64.48
2023-05-19T07:43:26.546Z,64.85
2023-05-19T07:45:57.589Z,65.53
2023-05-19T07:48:30.020Z,64.47
2023-05-19T07:51:00.901Z,63.96
2023-05-19T07:53:32.975Z,63.89
2023-05-19T07:56:06.748Z,63.89
2023-05-19T07:58:39.264Z,62.91
2023-05-19T08:01:09.859Z,61.65
2023-05-19T08:03:40.367Z,61.79
2023-05-19T08:06:10.963Z,62.93
2023-05-19T08:08:42.342Z,63.54
2023-05-19T08:11:15.523Z,62.57
2023-05-19T08:13:47.767Z,62.34
2023-05-19T08:16:18.361Z,62.90
2023-05-19T08:18:48.990Z,62.26
2023-05-19T08:21:19.499Z,61.29
2023-05-19T08:23:50.065Z,61.53
2023-05-19T08:26:23.080Z,61.78
2023-05-19T08:28:53.655Z,61.85
2023-05-19T08:31:25.210Z,61.35
2023-05-19T08:33:58.486Z,61.80
2023-05-19T08:36:31.709Z,61.67
2023-05-19T08:39:02.158Z,60.87
2023-05-19T08:41:35.724Z,60.82
2023-05-19T08:44:06.622Z,60.76
2023-05-19T08:46:37.445Z,60.68
2023-05-19T08:49:15.901Z,61.58
2023-05-19T08:51:57.292Z,62.10
2023-05-19T08:54:35.395Z,61.54
2023-05-19T08:57:10.183Z,60.84
2023-05-19T08:59:42.456Z,60.98
2023-05-19T09:02:16.019Z,60.70
2023-05-19T09:04:48.209Z,61.54
2023-05-19T09:07:19.076Z,60.84
2023-05-19T09:09:49.529Z,61.37
2023-05-19T09:12:22.570Z,60.77
2023-05-19T09:14:53.099Z,60.47
2023-05-19T09:17:23.593Z,60.42
2023-05-19T09:19:54.743Z,60.57
2023-05-19T09:22:25.640Z,60.33
2023-05-19T09:24:56.878Z,59.91
2023-05-19T09:27:29.870Z,60.48
2023-05-19T09:30:11.054Z,60.36
2023-05-19T09:32:41.842Z,60.53
2023-05-19T09:35:14.412Z,60.18
2023-05-19T09:37:45.235Z,60.17
2023-05-19T09:40:18.831Z,58.63
2023-05-19T09:42:51.882Z,58.88
2023-05-19T09:45:23.686Z,59.47
2023-05-19T09:47:54.142Z,59.51
2023-05-19T09:50:30.325Z,60.20
2023-05-19T09:53:01.409Z,59.47
2023-05-19T09:55:33.521Z,59.23
2023-05-19T09:58:07.616Z,58.13
2023-05-19T10:00:38.330Z,58.78
2023-05-19T10:03:09.299Z,58.70
2023-05-19T10:05:41.711Z,58.02
2023-05-19T10:08:14.923Z,57.86
2023-05-19T10:10:45.843Z,57.48
2023-05-19T10:13:19.774Z,57.69
2023-05-19T10:15:59.017Z,58.09
2023-05-19T10:18:31.581Z,58.41
2023-05-19T10:21:03.646Z,58.38
2023-05-19T10:23:34.081Z,58.84
2023-05-19T10:26:06.867Z,58.14
2023-05-19T10:28:44.171Z,57.82
2023-05-19T10:31:22.360Z,56.78
2023-05-19T10:34:26.769Z,57.64
2023-05-19T10:37:09.498Z,58.63
2023-05-19T10:39:40.424Z,58.02
2023-05-19T10:42:20.210Z,58.22
2023-05-19T10:45:04.419Z,57.28
2023-05-19T10:47:35.424Z,57.75
2023-05-19T10:50:08.042Z,57.58
2023-05-19T10:52:41.405Z,56.84
2023-05-19T10:55:15.770Z,57.22
2023-05-19T10:57:57.193Z,56.84
2023-05-19T11:00:35.819Z,56.36
2023-05-19T11:05:54.732Z,57.46
2023-05-19T11:08:36.588Z,57.33
2023-05-19T11:11:17.652Z,57.07
2023-05-19T11:13:51.850Z,56.57
2023-05-19T11:16:31.101Z,57.02
2023-05-19T11:19:03.176Z,56.86
2023-05-19T11:21:47.029Z,56.77
2023-05-19T11:24:37.687Z,56.21
2023-05-19T11:27:27.989Z,57.69
2023-05-19T11:30:00.292Z,57.20
2023-05-19T11:32:39.335Z,56.55
2023-05-19T11:35:11.446Z,55.53
2023-05-19T11:37:42.878Z,55.20
2023-05-19T11:40:14.205Z,55.20
2023-05-19T11:42:45.497Z,56.22
2023-05-19T11:45:16.403Z,56.41
2023-05-19T11:48:01.382Z,56.38
2023-05-19T11:50:36.990Z,57.49
2023-05-19T11:53:07.731Z,56.33
2023-05-19T11:55:38.281Z,55.24
2023-05-19T11:58:08.726Z,55.50
2023-05-19T12:00:41.375Z,56.42
2023-05-19T12:03:15.076Z,55.92
2023-05-19T12:05:48.694Z,56.00
2023-05-19T12:08:21.786Z,55.82
2023-05-19T12:10:53.046Z,56.34
2023-05-19T12:13:25.159Z,56.27
2023-05-19T12:15:56.207Z,56.26
2023-05-19T12:18:33.639Z,55.37
2023-05-19T12:21:04.204Z,55.93
2023-05-19T12:23:35.481Z,54.72
2023-05-19T12:26:06.377Z,54.92
2023-05-19T12:28:37.522Z,55.11
2023-05-19T12:31:09.146Z,55.44
2023-05-19T12:33:42.498Z,56.36
2023-05-19T12:36:14.162Z,56.50
2023-05-19T12:38:44.795Z,55.95
2023-05-19T12:41:15.406Z,55.60
2023-05-19T12:43:45.976Z,55.27
2023-05-19T12:46:17.281Z,55.52
2023-05-19T12:48:52.080Z,55.43
2023-05-19T12:51:22.795Z,55.62
2023-05-19T12:53:53.762Z,56.37
2023-05-19T12:56:24.623Z,57.19
2023-05-19T12:58:57.937Z,56.91
2023-05-19T13:01:29.040Z,56.82
2023-05-19T13:04:04.643Z,56.61
2023-05-19T13:06:36.542Z,56.77
2023-05-19T13:09:07.512Z,56.67
2023-05-19T13:11:37.983Z,56.94
2023-05-19T13:14:08.548Z,57.16
2023-05-19T13:16:39.216Z,57.39
2023-05-19T13:19:24.289Z,56.91
2023-05-19T13:21:56.230Z,57.12
2023-05-19T13:24:26.771Z,56.84
2023-05-19T13:26:57.354Z,56.66
2023-05-19T13:29:28.425Z,57.22
2023-05-19T13:32:01.188Z,56.99
2023-05-19T13:34:34.589Z,57.17
2023-05-19T13:37:05.830Z,57.05
2023-05-19T13:39:37.164Z,56.88
2023-05-19T13:42:08.428Z,57.72
2023-05-19T13:44:39.012Z,57.44
2023-05-19T13:47:09.500Z,57.65
2023-05-19T13:49:43.081Z,57.88
2023-05-19T13:52:16.428Z,58.28
2023-05-19T13:54:46.931Z,58.07
2023-05-19T13:57:20.279Z,57.77
2023-05-19T14:00:01.947Z,57.62
2023-05-19T14:02:42.698Z,56.97
2023-05-19T14:05:15.929Z,57.45
2023-05-19T14:07:46.943Z,58.55
2023-05-19T14:10:17.818Z,58.89
2023-05-19T14:13:14.038Z,57.46
2023-05-19T14:15:41.595Z,57.94
2023-05-19T14:18:12.229Z,57.79
2023-05-19T14:20:45.406Z,57.11
2023-05-19T14:23:17.135Z,57.45
2023-05-19T14:25:47.653Z,57.34
2023-05-19T14:28:18.000Z,58.04
2023-05-19T14:30:48.854Z,58.20
2023-05-19T14:33:19.563Z,57.87
2023-05-19T14:35:52.795Z,57.31
2023-05-19T14:38:23.336Z,57.32
2023-05-19T14:40:54.243Z,56.69
2023-05-19T14:43:24.624Z,57.14
2023-05-19T14:45:55.098Z,58.13
2023-05-19T14:48:25.774Z,58.58
2023-05-19T14:50:59.005Z,58.38
2023-05-19T14:53:29.489Z,59.16
2023-05-19T14:55:59.902Z,58.75
2023-05-19T14:58:30.888Z,58.97
2023-05-19T15:01:01.930Z,58.44
2023-05-19T15:03:32.576Z,58.40
2023-05-19T15:06:05.711Z,58.47
2023-05-19T15:08:37.903Z,56.79
2023-05-19T15:11:08.486Z,56.38
2023-05-19T15:13:39.029Z,57.21
2023-05-19T15:18:44.839Z,57.79
2023-05-19T15:21:17.864Z,57.87
2023-05-19T15:23:48.351Z,58.35
2023-05-19T15:26:18.869Z,57.89
2023-05-19T15:28:49.435Z,57.72
2023-05-19T15:31:19.878Z,57.92
2023-05-19T15:33:50.461Z,57.30
2023-05-19T15:36:24.191Z,56.95
2023-05-19T15:38:54.558Z,57.58
2023-05-19T15:41:24.916Z,56.14
2023-05-19T15:43:56.025Z,56.40
2023-05-19T15:46:26.610Z,56.59
2023-05-19T15:48:57.172Z,56.42
2023-05-19T15:51:30.306Z,56.13
2023-05-19T15:54:00.846Z,56.17
2023-05-19T15:56:31.313Z,57.07
2023-05-19T15:59:01.758Z,56.78
2023-05-19T16:01:32.555Z,56.73
2023-05-19T16:04:04.100Z,57.08
2023-05-19T16:06:37.207Z,57.48
2023-05-19T16:09:07.686Z,58.08
2023-05-19T16:11:38.143Z,58.79
2023-05-19T16:14:08.707Z,59.00
2023-05-19T16:16:39.251Z,58.06
2023-05-19T16:19:10.502Z,58.24
2023-05-19T16:21:43.635Z,57.23
2023-05-19T16:24:14.200Z,56.87
2023-05-19T16:26:44.726Z,57.01
2023-05-19T16:29:15.202Z,56.41
2023-05-19T16:31:45.653Z,56.37
2023-05-19T16:34:16.315Z,56.74
2023-05-19T16:36:49.295Z,57.23
2023-05-19T16:39:19.690Z,57.12
2023-05-19T16:41:50.168Z,57.47
2023-05-19T16:44:20.601Z,57.94
2023-05-19T16:46:50.968Z,57.38
2023-05-19T16:49:21.472Z,57.17
2023-05-19T16:51:55.933Z,57.66
2023-05-19T16:54:26.392Z,56.63
2023-05-19T16:56:56.786Z,56.33
2023-05-19T16:59:27.323Z,56.18
2023-05-19T17:01:57.821Z,56.06
2023-05-19T17:04:30.675Z,56.04
2023-05-19T17:07:03.965Z,56.96
2023-05-19T17:09:34.580Z,56.29
2023-05-19T17:12:05.027Z,55.27
2023-05-19T17:14:35.718Z,54.35
2023-05-19T17:17:06.787Z,53.71
2023-05-19T17:19:37.516Z,53.20
2023-05-19T17:22:10.660Z,53.67
2023-05-19T17:24:41.394Z,53.16
2023-05-19T17:27:11.853Z,53.20
2023-05-19T17:29:42.477Z,54.20
2023-05-19T17:32:13.001Z,53.62
2023-05-19T17:34:43.542Z,54.17
2023-05-19T17:37:19.284Z,54.44
2023-05-19T17:39:49.709Z,53.75
2023-05-19T17:42:20.272Z,53.42
2023-05-19T17:44:50.733Z,53.86
2023-05-19T17:47:21.231Z,53.33
2023-05-19T17:49:53.130Z,52.69
2023-05-19T17:52:27.260Z,52.78
2023-05-19T17:54:58.870Z,52.95
2023-05-19T17:57:34.188Z,52.00
2023-05-19T18:00:05.902Z,51.86
2023-05-19T18:02:37.587Z,51.26
2023-05-19T18:05:10.099Z,51.50
2023-05-19T18:07:46.303Z,51.95
2023-05-19T18:10:19.404Z,52.35
2023-05-19T18:12:49.942Z,52.75
2023-05-19T18:15:21.218Z,53.04
2023-05-19T18:17:51.812Z,52.78
2023-05-19T18:20:22.567Z,52.85
2023-05-19T18:22:55.867Z,53.65
2023-05-19T18:25:26.375Z,53.84
2023-05-19T18:27:57.385Z,54.23
2023-05-19T18:30:27.782Z,54.28
2023-05-19T18:33:02.206Z,53.85
2023-05-19T18:35:32.809Z,54.19
2023-05-19T18:38:05.914Z,54.36
2023-05-19T18:40:36.568Z,54.83
2023-05-19T18:43:07.370Z,54.61
2023-05-19T18:45:38.582Z,54.89
2023-05-19T18:48:10.181Z,54.96
2023-05-19T18:50:41.195Z,55.17
2023-05-19T18:53:14.412Z,54.99
2023-05-19T18:55:45.023Z,55.01
2023-05-19T18:58:15.626Z,55.25
2023-05-19T19:00:46.171Z,55.55
2023-05-19T19:03:16.654Z,55.59
2023-05-19T19:05:48.153Z,56.37
2023-05-19T19:08:21.189Z,56.80
2023-05-19T19:10:52.236Z,56.56
2023-05-19T19:13:22.803Z,57.25
2023-05-19T19:15:53.339Z,57.37
2023-05-19T19:18:24.060Z,57.03
2023-05-19T19:20:55.039Z,56.76
2023-05-19T19:23:28.115Z,57.16
2023-05-19T19:25:58.859Z,56.74
2023-05-19T19:28:29.462Z,56.62
2023-05-19T19:30:59.980Z,56.51
2023-05-19T19:33:30.663Z,56.77
2023-05-19T19:36:01.528Z,56.70
2023-05-19T19:38:34.656Z,57.35
2023-05-19T19:41:05.284Z,57.16
2023-05-19T19:43:35.844Z,57.08
2023-05-19T19:46:09.321Z,57.48
2023-05-19T19:48:39.805Z,58.01
2023-05-19T19:51:10.233Z,57.91
2023-05-19T19:53:43.363Z,58.14
2023-05-19T19:56:13.828Z,58.09
2023-05-19T19:58:44.318Z,58.51
2023-05-19T20:01:16.172Z,58.73
2023-05-19T20:03:46.699Z,59.33
2023-05-19T20:06:17.229Z,59.30
2023-05-19T20:08:50.366Z,59.97
2023-05-19T20:11:23.123Z,60.18
2023-05-19T20:13:53.673Z,60.60
2023-05-19T20:16:24.339Z,60.45
2023-05-19T20:18:54.880Z,60.49
2023-05-19T20:21:25.461Z,60.84
2023-05-19T20:23:58.722Z,60.70
2023-05-19T20:26:29.445Z,60.59
2023-05-19T20:29:00.437Z,61.12
2023-05-19T20:31:30.837Z,61.10
2023-05-19T20:34:01.902Z,60.87
2023-05-19T20:36:32.576Z,61.36
2023-05-19T20:39:07.292Z,61.16
2023-05-19T20:41:37.478Z,61.47
2023-05-19T20:44:10.435Z,61.42
2023-05-19T20:46:40.903Z,61.68
2023-05-19T20:49:11.237Z,61.79
2023-05-19T20:51:41.732Z,62.10
2023-05-19T20:54:14.738Z,62.32
2023-05-19T20:56:45.261Z,62.84
2023-05-19T20:59:15.928Z,63.34
2023-05-19T21:01:48.399Z,63.58
2023-05-19T21:04:19.091Z,63.90
2023-05-19T21:06:49.619Z,64.09
2023-05-19T21:09:22.858Z,63.88
2023-05-19T21:11:53.818Z,64.52
2023-05-19T21:14:25.518Z,64.70
2023-05-19T21:16:56.802Z,64.84
2023-05-19T21:19:27.589Z,64.40
2023-05-19T21:21:58.182Z,64.44
2023-05-19T21:24:31.358Z,64.63
2023-05-19T21:27:01.796Z,64.68
2023-05-19T21:29:32.164Z,64.85
2023-05-19T21:32:02.648Z,65.02
2023-05-19T21:34:33.043Z,65.11
2023-05-19T21:37:03.610Z,65.70
2023-05-19T21:39:36.704Z,65.62
2023-05-19T21:42:08.223Z,66.10
2023-05-19T21:44:39.039Z,66.37
2023-05-19T21:47:09.653Z,67.09
2023-05-19T21:49:41.050Z,67.25
2023-05-19T21:52:11.484Z,67.50
2023-05-19T21:54:44.554Z,67.61
2023-05-19T21:57:15.097Z,68.03
2023-05-19T21:59:45.672Z,66.94
2023-05-19T22:02:16.193Z,67.02
2023-05-19T22:04:46.713Z,67.60
2023-05-19T22:07:17.091Z,67.48
2023-05-19T22:09:50.185Z,67.57
2023-05-19T22:12:20.590Z,68.02
2023-05-19T22:14:50.977Z,68.01
2023-05-19T22:17:21.804Z,68.13
2023-05-19T22:19:52.288Z,68.24
2023-05-19T22:22:22.722Z,68.42
2023-05-19T22:24:55.751Z,68.90
2023-05-19T22:27:26.279Z,68.77
2023-05-19T22:29:56.700Z,68.98
2023-05-19T22:32:27.108Z,69.51
2023-05-19T22:34:57.645Z,69.55
2023-05-19T22:37:29.119Z,69.89
2023-05-19T22:40:02.768Z,70.60
2023-05-19T22:42:33.117Z,70.72
2023-05-19T22:45:03.575Z,70.78
2023-05-19T22:47:34.066Z,70.72
2023-05-19T22:50:04.469Z,70.34
2023-05-19T22:52:35.017Z,70.65
2023-05-19T22:55:09.296Z,70.62
2023-05-19T22:57:39.824Z,70.72
2023-05-19T23:00:14.236Z,70.79
2023-05-19T23:02:45.151Z,70.71
2023-05-19T23:05:15.548Z,71.32
2023-05-19T23:07:46.158Z,71.41
2023-05-19T23:10:19.617Z,71.80
2023-05-19T23:12:50.394Z,71.85
2023-05-19T23:15:21.125Z,72.08
2023-05-19T23:17:51.739Z,72.54
2023-05-19T23:20:22.209Z,72.85
2023-05-19T23:22:52.666Z,73.30
2023-05-19T23:25:25.666Z,73.36
2023-05-19T23:27:56.180Z,73.45
2023-05-19T23:30:26.631Z,73.51
2023-05-19T23:32:57.055Z,74.08
2023-05-19T23:35:27.630Z,74.36
2023-05-19T23:37:58.108Z,74.49
2023-05-19T23:40:31.775Z,74.35
2023-05-19T23:43:02.214Z,74.33
2023-05-19T23:45:32.825Z,74.63
2023-05-19T23:48:03.573Z,74.93
2023-05-19T23:50:34.131Z,74.99
2023-05-19T23:53:04.631Z,75.29
2023-05-19T23:55:37.615Z,75.49
2023-05-19T23:58:08.177Z,75.45
